Time;durP1;ratioP1;P1;durP2;ratioP2;P2;SDS_P1;SDS_P2;PMS_P1;PMS_P2;Temp;Humidity;BMP_temperature;BMP_pressure;BME280_temperature;BME280_humidity;BME280_pressure;Samples;Min_cycle;Max_cycle;Signal;HPM_P1;HPM_P2
2021/12/01 00:02:05;;;;;;;0.88;0.85;;;14.60;67.50;;;;;;5061262;28;20766;-39
2021/12/01 00:04:31;;;;;;;1.15;0.93;;;14.60;67.50;;;;;;5082082;28;20746;-36
2021/12/01 00:06:56;;;;;;;1.60;1.00;;;14.60;67.50;;;;;;5076663;28;39259;-36
2021/12/01 00:09:22;;;;;;;0.85;0.85;;;14.60;67.40;;;;;;5060353;28;20047;-38
2021/12/01 00:11:47;;;;;;;0.90;0.85;;;14.60;67.40;;;;;;5080724;28;20499;-36
2021/12/01 00:14:13;;;;;;;1.02;1.00;;;14.60;67.40;;;;;;5062865;28;20625;-37
2021/12/01 00:16:39;;;;;;;1.17;1.08;;;14.60;67.40;;;;;;5078555;28;20038;-37
2021/12/01 00:19:04;;;;;;;1.20;1.10;;;14.70;67.40;;;;;;5060701;28;21851;-39
2021/12/01 00:21:30;;;;;;;1.58;0.88;;;14.60;67.30;;;;;;5077880;28;39287;-38
2021/12/01 00:23:55;;;;;;;1.20;0.90;;;14.70;67.30;;;;;;5064389;28;20066;-40
2021/12/01 00:26:21;;;;;;;1.20;1.10;;;14.70;67.30;;;;;;5079917;28;20036;-39
2021/12/01 00:28:47;;;;;;;1.63;1.00;;;14.60;67.30;;;;;;5063328;28;23700;-40
2021/12/01 00:31:12;;;;;;;1.00;1.00;;;14.60;67.30;;;;;;5081158;28;20080;-40
2021/12/01 00:33:40;;;;;;;1.48;1.23;;;14.60;67.30;;;;;;5063151;28;23329;-41
2021/12/01 00:36:08;;;;;;;0.88;0.88;;;14.60;67.30;;;;;;5078839;28;36127;-37
2021/12/01 00:38:35;;;;;;;0.82;0.80;;;14.60;67.30;;;;;;5061072;28;23294;-34
2021/12/01 00:41:04;;;;;;;1.00;0.90;;;14.60;67.30;;;;;;5075411;28;20086;-37
2021/12/01 00:43:30;;;;;;;1.02;0.90;;;14.60;67.30;;;;;;5079293;28;20144;-37
2021/12/01 00:45:58;;;;;;;1.83;1.35;;;14.70;67.30;;;;;;5060928;28;20036;-40
2021/12/01 00:48:25;;;;;;;0.90;0.90;;;14.60;67.30;;;;;;5079413;28;20043;-40
2021/12/01 00:50:51;;;;;;;1.02;0.93;;;14.70;67.30;;;;;;5059033;28;36290;-38
2021/12/01 00:53:17;;;;;;;1.00;1.00;;;14.70;67.30;;;;;;5080604;28;20032;-40
2021/12/01 00:55:43;;;;;;;1.15;0.88;;;14.70;67.30;;;;;;5057274;28;24235;-40
2021/12/01 00:58:11;;;;;;;1.10;0.98;;;14.70;67.30;;;;;;5079136;28;20036;-40
2021/12/01 01:00:39;;;;;;;1.20;1.10;;;14.70;67.30;;;;;;5062844;28;20442;-40
2021/12/01 01:03:04;;;;;;;1.02;0.95;;;14.70;67.30;;;;;;5078761;28;38546;-38
2021/12/01 01:05:30;;;;;;;1.38;1.20;;;14.70;67.20;;;;;;5061970;28;20084;-38
2021/12/01 01:07:56;;;;;;;1.00;1.00;;;14.70;67.20;;;;;;5078415;28;20173;-40
2021/12/01 01:18:20;;;;;;;1.10;0.90;;;14.70;67.10;;;;;;5077709;28;34514;-40
2021/12/01 01:20:45;;;;;;;1.83;1.40;;;14.70;67.10;;;;;;5064488;28;27889;-40
2021/12/01 01:23:11;;;;;;;0.90;0.88;;;14.70;67.10;;;;;;5079657;28;20431;-36
2021/12/01 01:25:37;;;;;;;1.38;1.25;;;14.70;67.10;;;;;;5063757;28;20046;-39
2021/12/01 01:28:03;;;;;;;2.15;1.17;;;14.70;67.10;;;;;;5076031;28;24161;-40
2021/12/01 01:30:29;;;;;;;1.60;1.08;;;14.70;67.10;;;;;;5079018;28;20047;-38
2021/12/01 01:32:54;;;;;;;0.90;0.90;;;14.70;67.10;;;;;;5060079;28;45358;-35
2021/12/01 01:35:20;;;;;;;1.27;0.95;;;14.70;67.10;;;;;;5079274;28;20399;-40
2021/12/01 01:37:46;;;;;;;0.88;0.88;;;14.70;67.10;;;;;;5062267;28;20036;-40
2021/12/01 01:40:12;;;;;;;1.00;0.90;;;14.70;67.10;;;;;;5077862;28;20411;-38
2021/12/01 01:42:38;;;;;;;0.82;0.82;;;14.70;67.10;;;;;;5052355;28;20078;-39
2021/12/01 01:45:04;;;;;;;1.15;0.80;;;14.70;67.00;;;;;;5078865;28;36954;-33
2021/12/01 01:47:30;;;;;;;1.25;1.13;;;14.70;67.00;;;;;;5060467;28;20384;-41
2021/12/01 01:52:28;;;;;;;0.95;0.90;;;14.70;67.10;;;;;;5061682;28;21828;-36
2021/12/01 01:54:55;;;;;;;1.33;1.20;;;14.70;67.10;;;;;;5095177;27;20656;-38
2021/12/01 01:57:21;;;;;;;1.00;1.00;;;14.70;67.10;;;;;;5055910;28;24132;-40
2021/12/01 01:59:47;;;;;;;1.30;1.15;;;14.70;67.10;;;;;;5074418;28;36444;-38
2021/12/01 02:02:13;;;;;;;0.80;0.80;;;14.70;67.10;;;;;;5073973;28;20127;-32
2021/12/01 02:04:39;;;;;;;1.38;1.27;;;14.70;67.10;;;;;;5052856;28;25892;-37
2021/12/01 02:07:05;;;;;;;0.63;0.63;;;14.70;67.10;;;;;;5079075;28;20055;-34
2021/12/01 02:09:32;;;;;;;0.82;0.82;;;14.70;67.10;;;;;;5064689;28;21356;-40
2021/12/01 02:12:01;;;;;;;0.93;0.80;;;14.70;67.10;;;;;;5070142;28;20036;-37
2021/12/01 02:14:28;;;;;;;0.88;0.85;;;14.70;67.00;;;;;;5059486;28;41493;-40
2021/12/01 02:16:55;;;;;;;0.75;0.75;;;14.70;67.00;;;;;;5078587;28;20129;-41
2021/12/01 02:19:22;;;;;;;0.80;0.80;;;14.70;67.00;;;;;;5060386;28;20055;-39
2021/12/01 02:21:48;;;;;;;0.70;0.70;;;14.70;67.00;;;;;;5078503;28;20032;-39
2021/12/01 02:24:15;;;;;;;0.68;0.68;;;14.70;67.00;;;;;;5061251;28;22673;-40
2021/12/01 02:26:46;;;;;;;0.98;0.88;;;14.70;67.00;;;;;;5073557;28;20036;-36
2021/12/01 02:29:15;;;;;;;0.80;0.80;;;14.60;67.10;;;;;;5059182;28;36628;-37
2021/12/01 02:31:43;;;;;;;0.80;0.65;;;14.70;67.00;;;;;;5078902;28;20643;-39
2021/12/01 02:34:18;;;;;;;0.70;0.70;;;14.70;67.00;;;;;;5059351;28;26033;-40
2021/12/01 02:36:47;;;;;;;1.40;1.00;;;14.70;67.00;;;;;;5078558;28;20048;-39
2021/12/01 02:39:15;;;;;;;0.90;0.80;;;14.70;67.10;;;;;;5060448;28;20082;-34
2021/12/01 02:41:42;;;;;;;0.50;0.50;;;14.60;67.00;;;;;;5069362;28;31290;-37
2021/12/01 02:44:11;;;;;;;0.73;0.73;;;14.70;67.10;;;;;;5070272;28;20055;-36
2021/12/01 02:46:37;;;;;;;0.70;0.70;;;14.60;67.00;;;;;;5076087;28;22267;-38
2021/12/01 02:49:03;;;;;;;0.60;0.60;;;14.60;67.00;;;;;;5079845;28;20039;-38
2021/12/01 02:51:32;;;;;;;0.70;0.68;;;14.70;67.00;;;;;;5045296;28;20044;-39
2021/12/01 02:53:58;;;;;;;0.68;0.68;;;14.70;67.10;;;;;;5077337;28;20114;-40
2021/12/01 02:56:24;;;;;;;1.25;0.70;;;14.70;67.00;;;;;;5054723;28;44310;-38
2021/12/01 02:58:51;;;;;;;0.60;0.60;;;14.70;67.10;;;;;;5076573;28;20040;-38
2021/12/01 03:01:20;;;;;;;0.50;0.50;;;14.60;67.00;;;;;;5052802;28;25077;-38
2021/12/01 03:03:46;;;;;;;0.60;0.60;;;14.60;67.00;;;;;;5075424;28;20054;-33
2021/12/01 03:06:12;;;;;;;0.40;0.40;;;14.70;67.20;;;;;;5075102;28;20097;-36
2021/12/01 03:08:41;;;;;;;0.70;0.52;;;14.60;67.10;;;;;;5076202;28;20046;-38
2021/12/01 03:11:07;;;;;;;0.73;0.73;;;14.60;67.20;;;;;;5057863;28;32224;-39
2021/12/01 03:13:33;;;;;;;0.30;0.30;;;14.60;67.10;;;;;;5076097;28;20040;-37
2021/12/01 03:15:59;;;;;;;0.52;0.52;;;14.60;67.10;;;;;;5061808;28;20035;-38
2021/12/01 03:18:25;;;;;;;0.70;0.38;;;14.60;67.20;;;;;;5085763;28;20704;-39
2021/12/01 03:20:52;;;;;;;0.50;0.50;;;14.60;67.10;;;;;;5066037;28;26586;-31
2021/12/01 03:23:18;;;;;;;0.50;0.50;;;14.60;67.10;;;;;;5079970;28;36607;-39
2021/12/01 03:25:44;;;;;;;0.50;0.50;;;14.60;67.10;;;;;;5080980;28;20041;-39
2021/12/01 03:28:10;;;;;;;0.40;0.40;;;14.60;67.10;;;;;;5059769;28;20047;-38
2021/12/01 03:30:37;;;;;;;0.52;0.38;;;14.60;67.00;;;;;;5081093;28;20035;-39
2021/12/01 03:33:06;;;;;;;0.40;0.40;;;14.60;67.00;;;;;;5065695;28;20044;-40
2021/12/01 03:35:32;;;;;;;0.47;0.40;;;14.60;67.00;;;;;;5082516;28;20031;-39
2021/12/01 03:37:57;;;;;;;0.50;0.50;;;14.60;67.10;;;;;;5062581;28;29771;-39
2021/12/01 03:40:23;;;;;;;0.60;0.50;;;14.60;67.10;;;;;;5080582;28;20046;-37
2021/12/01 03:42:50;;;;;;;0.40;0.40;;;14.60;67.10;;;;;;5059241;28;24777;-32
2021/12/01 03:45:16;;;;;;;0.60;0.40;;;14.60;67.20;;;;;;5080658;28;20048;-34
2021/12/01 03:47:42;;;;;;;0.85;0.50;;;14.60;67.10;;;;;;5062749;28;24286;-39
2021/12/01 03:50:09;;;;;;;0.40;0.40;;;14.60;67.20;;;;;;5081275;28;20037;-39
2021/12/01 03:52:35;;;;;;;0.50;0.40;;;14.60;67.30;;;;;;5058665;28;36131;-34
2021/12/01 03:55:00;;;;;;;0.88;0.50;;;14.60;67.20;;;;;;5062632;28;20036;-39
2021/12/01 03:57:26;;;;;;;1.38;0.70;;;14.60;67.10;;;;;;5067413;28;20087;-31
2021/12/01 03:59:52;;;;;;;0.40;0.40;;;14.60;67.20;;;;;;5073449;28;20040;-38
2021/12/01 04:02:18;;;;;;;0.68;0.40;;;14.60;67.10;;;;;;5064660;28;20983;-39
2021/12/01 04:04:44;;;;;;;0.38;0.38;;;14.60;67.10;;;;;;5064547;28;21715;-38
2021/12/01 04:07:10;;;;;;;0.35;0.35;;;14.60;67.20;;;;;;5078951;28;43480;-37
2021/12/01 04:09:38;;;;;;;0.43;0.43;;;14.60;67.00;;;;;;5063851;28;25728;-37
2021/12/01 04:12:04;;;;;;;0.50;0.50;;;14.60;67.00;;;;;;5074999;28;20488;-35
2021/12/01 04:14:30;;;;;;;0.30;0.30;;;14.60;67.00;;;;;;5063851;28;24287;-39
2021/12/01 04:16:55;;;;;;;0.50;0.50;;;14.60;67.00;;;;;;5079426;28;20397;-38
2021/12/01 04:19:21;;;;;;;0.50;0.50;;;14.60;67.20;;;;;;5062851;28;24582;-33
2021/12/01 04:21:46;;;;;;;0.40;0.32;;;14.60;67.10;;;;;;5075356;28;42046;-39
2021/12/01 04:24:12;;;;;;;0.40;0.40;;;14.60;67.10;;;;;;5065847;28;26370;-32
2021/12/01 04:26:38;;;;;;;0.40;0.40;;;14.60;67.10;;;;;;5081216;28;20035;-34
2021/12/01 04:29:05;;;;;;;0.30;0.30;;;14.60;67.00;;;;;;5057515;28;27446;-38
2021/12/01 04:31:34;;;;;;;0.30;0.30;;;14.60;67.00;;;;;;5081431;28;20048;-39
2021/12/01 04:34:01;;;;;;;0.47;0.40;;;14.60;67.10;;;;;;5078212;28;36628;-38
2021/12/01 04:36:30;;;;;;;0.20;0.20;;;14.60;67.10;;;;;;5061372;28;20032;-37
2021/12/01 04:38:56;;;;;;;0.30;0.30;;;14.60;67.00;;;;;;5081070;28;20036;-39
2021/12/01 04:41:23;;;;;;;0.40;0.40;;;14.60;67.00;;;;;;5061436;28;26379;-39
2021/12/01 04:43:49;;;;;;;0.38;0.38;;;14.60;67.10;;;;;;5076046;28;20044;-40
2021/12/01 04:46:19;;;;;;;0.30;0.30;;;14.60;67.10;;;;;;5058817;28;20727;-37
2021/12/01 04:48:46;;;;;;;0.85;0.50;;;14.60;67.10;;;;;;5075933;28;43152;-36
2021/12/01 04:51:12;;;;;;;0.50;0.50;;;14.60;67.10;;;;;;5061995;28;21801;-37
2021/12/01 04:53:38;;;;;;;0.40;0.40;;;14.60;67.00;;;;;;5077635;28;20136;-39
2021/12/01 04:56:05;;;;;;;0.50;0.30;;;14.60;67.00;;;;;;5063291;28;20071;-36
2021/12/01 04:58:31;;;;;;;0.30;0.30;;;14.60;66.90;;;;;;5077824;28;20506;-39
2021/12/01 05:01:01;;;;;;;0.30;0.30;;;14.60;67.00;;;;;;5059747;28;21717;-39
2021/12/01 05:03:27;;;;;;;0.40;0.40;;;14.60;67.00;;;;;;5076935;28;39127;-38
2021/12/01 05:05:52;;;;;;;0.40;0.40;;;14.60;67.00;;;;;;5060864;28;23987;-37
2021/12/01 05:08:20;;;;;;;0.30;0.30;;;14.60;66.90;;;;;;5080182;28;21025;-38
2021/12/01 05:10:46;;;;;;;0.40;0.40;;;14.60;67.00;;;;;;5069541;28;20044;-34
2021/12/01 05:13:12;;;;;;;0.35;0.30;;;14.60;67.00;;;;;;5064245;28;24002;-39
2021/12/01 05:15:38;;;;;;;0.30;0.30;;;14.60;67.00;;;;;;5081177;28;20399;-41
2021/12/01 05:18:04;;;;;;;0.50;0.40;;;14.60;67.00;;;;;;5056260;28;41398;-39
2021/12/01 05:20:29;;;;;;;0.38;0.38;;;14.60;67.10;;;;;;5079872;28;20062;-39
2021/12/01 05:22:55;;;;;;;0.40;0.40;;;14.60;67.10;;;;;;5061523;28;20045;-39
2021/12/01 05:25:21;;;;;;;0.30;0.30;;;14.50;67.10;;;;;;5079868;28;20040;-37
2021/12/01 05:27:46;;;;;;;0.32;0.32;;;14.50;67.10;;;;;;5062929;28;23117;-34
2021/12/01 05:30:12;;;;;;;0.43;0.43;;;14.50;67.20;;;;;;5074450;28;41305;-41
2021/12/01 05:32:38;;;;;;;0.40;0.40;;;14.50;67.10;;;;;;5057215;28;20048;-40
2021/12/01 05:35:04;;;;;;;0.30;0.30;;;14.50;67.10;;;;;;5077947;28;20043;-40
2021/12/01 05:37:29;;;;;;;0.40;0.30;;;14.50;67.10;;;;;;5062576;28;21636;-39
2021/12/01 05:39:55;;;;;;;0.30;0.30;;;14.50;67.10;;;;;;5079632;28;20117;-37
2021/12/01 05:42:21;;;;;;;0.98;0.47;;;14.50;67.10;;;;;;5063270;28;20579;-38
2021/12/01 05:44:46;;;;;;;0.40;0.40;;;14.50;67.00;;;;;;5071916;28;38632;-40
2021/12/01 05:47:12;;;;;;;0.40;0.40;;;14.50;67.20;;;;;;5077498;28;20120;-39
2021/12/01 05:49:42;;;;;;;0.20;0.20;;;14.50;67.20;;;;;;5061086;28;26708;-40
2021/12/01 05:52:15;;;;;;;0.63;0.35;;;14.50;67.10;;;;;;5077352;28;20522;-41
2021/12/01 05:54:42;;;;;;;0.28;0.28;;;14.50;67.20;;;;;;5060411;28;20116;-36
2021/12/01 05:57:07;;;;;;;0.30;0.30;;;14.50;67.10;;;;;;5080338;28;20463;-35
2021/12/01 05:59:33;;;;;;;0.50;0.30;;;14.50;67.10;;;;;;5058854;28;37037;-40
2021/12/01 06:01:59;;;;;;;0.30;0.30;;;14.50;67.20;;;;;;5076667;28;20040;-41
2021/12/01 06:04:24;;;;;;;0.20;0.20;;;14.50;67.20;;;;;;5062071;28;20044;-40
2021/12/01 06:06:51;;;;;;;0.22;0.22;;;14.50;67.20;;;;;;5078942;28;20052;-39
2021/12/01 06:09:16;;;;;;;0.30;0.30;;;14.50;67.20;;;;;;5062842;28;20077;-39
2021/12/01 06:11:42;;;;;;;0.60;0.30;;;14.50;67.20;;;;;;5080235;28;20040;-40
2021/12/01 06:14:09;;;;;;;0.40;0.30;;;14.50;67.10;;;;;;5052128;28;38397;-41
2021/12/01 06:16:35;;;;;;;0.38;0.38;;;14.50;67.20;;;;;;5078431;28;20711;-40
2021/12/01 06:19:00;;;;;;;0.30;0.30;;;14.50;67.10;;;;;;5059017;28;23280;-35
2021/12/01 06:21:26;;;;;;;0.20;0.20;;;14.60;67.20;;;;;;5078689;28;20044;-38
2021/12/01 06:23:52;;;;;;;0.30;0.30;;;14.60;67.20;;;;;;5079154;28;20702;-40
2021/12/01 06:26:17;;;;;;;0.38;0.30;;;14.60;67.10;;;;;;5054216;28;36833;-38
2021/12/01 06:28:43;;;;;;;0.20;0.20;;;14.60;67.20;;;;;;5075017;28;20064;-37
2021/12/01 06:31:09;;;;;;;0.25;0.25;;;14.60;67.20;;;;;;5060899;28;25473;-40
2021/12/01 06:33:35;;;;;;;0.30;0.30;;;14.70;67.10;;;;;;5071431;28;20067;-40
2021/12/01 06:36:00;;;;;;;0.28;0.28;;;14.60;67.20;;;;;;5062527;28;20121;-37
2021/12/01 06:38:26;;;;;;;0.30;0.30;;;14.70;67.30;;;;;;5056555;28;38549;-34
2021/12/01 06:40:52;;;;;;;0.43;0.30;;;14.70;67.20;;;;;;5054932;28;28818;-37
2021/12/01 06:43:17;;;;;;;0.30;0.30;;;14.70;67.20;;;;;;5074403;28;34823;-39
2021/12/01 06:45:43;;;;;;;0.20;0.20;;;14.70;67.10;;;;;;5060937;28;20043;-33
2021/12/01 06:48:08;;;;;;;0.25;0.25;;;14.70;67.10;;;;;;5075055;28;33768;-38
2021/12/01 06:50:34;;;;;;;0.20;0.20;;;14.80;67.10;;;;;;5058659;28;20373;-36
2021/12/01 06:53:00;;;;;;;0.30;0.30;;;14.80;67.10;;;;;;5080041;28;20607;-39
2021/12/01 06:55:26;;;;;;;0.20;0.20;;;14.80;67.00;;;;;;5072691;28;39053;-36
2021/12/01 06:57:51;;;;;;;0.20;0.20;;;14.80;67.70;;;;;;5062865;28;24279;-31
2021/12/01 07:00:20;;;;;;;0.20;0.20;;;14.90;66.90;;;;;;5075778;28;20071;-36
2021/12/01 07:02:46;;;;;;;0.13;0.13;;;14.90;66.90;;;;;;5060464;28;20075;-38
2021/12/01 07:05:12;;;;;;;1.15;0.20;;;14.90;67.00;;;;;;5078582;28;20047;-35
2021/12/01 07:07:38;;;;;;;0.28;0.28;;;14.90;67.20;;;;;;5062236;28;24266;-39
2021/12/01 07:10:10;;;;;;;0.30;0.30;;;15.00;67.10;;;;;;5075743;28;38582;-37
2021/12/01 07:12:36;;;;;;;0.40;0.40;;;15.00;67.00;;;;;;5063208;28;20748;-40
2021/12/01 07:15:03;;;;;;;0.20;0.20;;;15.00;66.90;;;;;;5075806;28;20046;-38
2021/12/01 07:17:29;;;;;;;0.10;0.10;;;15.10;67.00;;;;;;5060779;28;20835;-37
2021/12/01 07:19:54;;;;;;;0.20;0.20;;;15.10;67.00;;;;;;5079852;28;20039;-39
2021/12/01 07:22:20;;;;;;;0.52;0.20;;;15.10;66.90;;;;;;5058705;28;24339;-40
2021/12/01 07:24:46;;;;;;;1.08;0.20;;;15.10;67.10;;;;;;5071352;28;36909;-39
2021/12/01 07:27:11;;;;;;;0.45;0.40;;;15.20;67.10;;;;;;5056559;28;21655;-38
2021/12/01 07:29:37;;;;;;;0.95;0.30;;;15.20;67.20;;;;;;5072260;28;20036;-39
2021/12/01 07:32:04;;;;;;;0.50;0.30;;;15.20;67.20;;;;;;5079794;28;20064;-36
2021/12/01 07:34:30;;;;;;;2.92;0.30;;;15.30;67.20;;;;;;5058048;28;20036;-34
2021/12/01 07:36:56;;;;;;;1.17;0.30;;;15.30;67.10;;;;;;5077814;28;20036;-34
2021/12/01 07:39:22;;;;;;;1.17;0.28;;;15.30;67.00;;;;;;5063891;28;33816;-37
2021/12/01 07:41:48;;;;;;;0.68;0.30;;;15.30;67.00;;;;;;5077585;28;20151;-36
2021/12/01 07:44:14;;;;;;;0.30;0.30;;;15.40;67.10;;;;;;5061319;28;20050;-38
2021/12/01 07:46:40;;;;;;;0.57;0.30;;;15.40;67.10;;;;;;5080471;28;20046;-38
2021/12/01 07:49:06;;;;;;;0.77;0.20;;;15.40;67.00;;;;;;5057291;28;20037;-39
2021/12/01 07:51:32;;;;;;;0.30;0.30;;;15.40;67.00;;;;;;5079339;28;30845;-39
2021/12/01 07:53:58;;;;;;;0.20;0.20;;;15.40;66.90;;;;;;5060695;28;22893;-41
2021/12/01 07:56:23;;;;;;;0.30;0.30;;;15.50;67.00;;;;;;5071710;28;20047;-38
2021/12/01 07:58:49;;;;;;;0.40;0.30;;;15.50;66.80;;;;;;5064440;28;23788;-37
2021/12/01 08:01:15;;;;;;;0.57;0.30;;;15.50;66.90;;;;;;5078140;28;20442;-39
2021/12/01 08:03:40;;;;;;;0.40;0.30;;;15.50;66.90;;;;;;5058953;28;20784;-33
2021/12/01 08:06:06;;;;;;;0.30;0.30;;;15.60;66.80;;;;;;5078984;28;34436;-39
2021/12/01 08:08:31;;;;;;;1.13;0.30;;;15.60;66.80;;;;;;5081357;28;20081;-37
2021/12/01 08:10:57;;;;;;;0.20;0.20;;;15.60;66.70;;;;;;5063846;28;25021;-35
2021/12/01 08:13:23;;;;;;;0.52;0.30;;;15.60;66.70;;;;;;5081476;28;20901;-40
2021/12/01 08:15:49;;;;;;;0.60;0.40;;;15.60;66.80;;;;;;5059811;28;23224;-34
2021/12/01 08:18:16;;;;;;;0.60;0.60;;;15.70;66.80;;;;;;5062302;28;20044;-39
2021/12/01 08:20:42;;;;;;;4.72;0.70;;;15.70;66.80;;;;;;5064830;28;30896;-39
2021/12/01 08:23:08;;;;;;;17.95;1.00;;;15.70;66.90;;;;;;5078864;28;20079;-40
2021/12/01 08:25:35;;;;;;;5.15;0.82;;;15.70;67.30;;;;;;5065117;28;26547;-39
2021/12/01 08:28:02;;;;;;;2.17;0.70;;;15.80;67.70;;;;;;5080896;28;20059;-37
2021/12/01 08:30:28;;;;;;;1.73;0.80;;;15.80;68.30;;;;;;5061006;28;20525;-39
2021/12/01 08:32:54;;;;;;;2.50;0.70;;;15.80;68.90;;;;;;5080526;28;20053;-39
2021/12/01 08:35:21;;;;;;;2.00;0.70;;;15.80;69.70;;;;;;5061976;28;35877;-37
2021/12/01 08:37:46;;;;;;;2.28;0.65;;;15.80;70.00;;;;;;5081563;28;20056;-41
2021/12/01 08:40:14;;;;;;;1.80;0.68;;;15.80;70.20;;;;;;5071778;28;20136;-33
2021/12/01 08:42:40;;;;;;;1.83;0.73;;;15.90;70.70;;;;;;5077534;28;20043;-40
2021/12/01 08:45:07;;;;;;;1.10;0.80;;;15.90;70.90;;;;;;5081482;28;20048;-39
2021/12/01 08:47:33;;;;;;;1.27;0.73;;;15.90;71.20;;;;;;5062560;28;33814;-40
2021/12/01 08:49:58;;;;;;;1.05;0.70;;;15.90;71.60;;;;;;5085180;28;20039;-38
2021/12/01 08:52:24;;;;;;;1.35;0.70;;;15.90;71.60;;;;;;5056722;28;20058;-40
2021/12/01 08:54:50;;;;;;;0.68;0.68;;;15.90;71.80;;;;;;5079778;28;20036;-36
2021/12/01 08:57:16;;;;;;;2.30;0.70;;;15.90;72.10;;;;;;5064057;28;20640;-40
2021/12/01 08:59:44;;;;;;;0.80;0.50;;;16.00;72.40;;;;;;5061286;28;20036;-39
2021/12/01 09:02:10;;;;;;;1.05;0.73;;;16.00;72.50;;;;;;5062341;28;26382;-42
2021/12/01 09:04:36;;;;;;;0.80;0.70;;;16.00;72.90;;;;;;5081514;28;20063;-39
2021/12/01 09:07:02;;;;;;;1.83;0.70;;;16.00;72.90;;;;;;5063063;28;20032;-41
2021/12/01 09:09:28;;;;;;;0.95;0.70;;;16.00;73.00;;;;;;5082456;28;20391;-32
2021/12/01 09:11:54;;;;;;;2.22;0.63;;;16.00;73.40;;;;;;5048049;28;21131;-42
2021/12/01 09:14:23;;;;;;;3.38;0.82;;;16.10;73.60;;;;;;5059264;28;20029;-41
2021/12/01 09:16:50;;;;;;;1.65;0.70;;;16.10;73.60;;;;;;5080167;28;31339;-40
2021/12/01 09:19:15;;;;;;;2.08;0.80;;;16.10;73.60;;;;;;5064184;28;22053;-38
2021/12/01 09:21:41;;;;;;;2.15;0.70;;;16.10;73.80;;;;;;5081346;28;20047;-41
2021/12/01 09:24:07;;;;;;;2.30;0.73;;;16.20;73.80;;;;;;5066993;28;20047;-42
2021/12/01 09:26:34;;;;;;;1.33;0.75;;;16.20;74.00;;;;;;5066125;28;20072;-39
2021/12/01 09:29:01;;;;;;;1.27;0.80;;;16.20;74.00;;;;;;5061191;28;20093;-39
2021/12/01 09:31:27;;;;;;;1.73;0.70;;;16.20;74.20;;;;;;5080933;28;20042;-37
2021/12/01 09:33:52;;;;;;;3.30;1.10;;;16.30;74.30;;;;;;5061914;28;25782;-40
2021/12/01 09:36:18;;;;;;;3.22;1.20;;;16.30;74.10;;;;;;5081812;28;20076;-38
2021/12/01 09:38:43;;;;;;;1.30;1.20;;;16.30;74.10;;;;;;5043146;28;20128;-37
2021/12/01 09:41:09;;;;;;;1.42;1.15;;;16.30;74.40;;;;;;5081145;28;20059;-40
2021/12/01 09:43:36;;;;;;;1.30;1.00;;;16.30;74.60;;;;;;5060173;28;33764;-38
2021/12/01 09:46:04;;;;;;;5.93;1.27;;;16.40;74.60;;;;;;5079948;28;20052;-39
2021/12/01 09:48:32;;;;;;;2.15;1.20;;;16.40;74.00;;;;;;5061950;28;20057;-39
2021/12/01 09:50:58;;;;;;;2.08;1.25;;;16.30;74.50;;;;;;5081779;28;20128;-37
2021/12/01 09:53:24;;;;;;;2.05;1.00;;;16.30;74.70;;;;;;5078828;28;20046;-37
2021/12/01 09:55:49;;;;;;;2.10;1.08;;;16.40;74.90;;;;;;5060718;28;20044;-35
2021/12/01 09:58:22;;;;;;;3.03;1.10;;;16.40;74.40;;;;;;5075153;28;36862;-40
2021/12/01 10:00:51;;;;;;;2.13;1.10;;;16.30;74.90;;;;;;5063574;28;20061;-37
2021/12/01 10:03:17;;;;;;;4.30;1.10;;;16.30;75.20;;;;;;5079096;28;20040;-40
2021/12/01 10:05:52;;;;;;;2.47;1.10;;;16.30;74.80;;;;;;5064407;28;24754;-42
2021/12/01 10:08:23;;;;;;;3.13;1.10;;;16.40;75.60;;;;;;5079011;28;20105;-38
2021/12/01 10:10:51;;;;;;;1.17;0.90;;;16.40;75.10;;;;;;5062868;28;20519;-35
2021/12/01 10:13:29;;;;;;;1.95;1.00;;;16.40;75.50;;;;;;5076035;28;31037;-40
2021/12/01 10:15:57;;;;;;;2.20;0.82;;;16.40;75.20;;;;;;5060881;28;25517;-39
2021/12/01 10:18:23;;;;;;;1.60;0.82;;;16.40;75.50;;;;;;5077873;28;20123;-34
2021/12/01 10:21:04;;;;;;;2.25;0.98;;;16.40;75.30;;;;;;5061898;28;20096;-36
2021/12/01 10:23:30;;;;;;;2.15;1.08;;;16.40;75.70;;;;;;5074705;28;20419;-39
2021/12/01 10:26:04;;;;;;;2.50;0.80;;;16.40;75.40;;;;;;5059444;28;23732;-39
2021/12/01 10:28:39;;;;;;;3.40;1.00;;;16.40;75.30;;;;;;5078973;28;20458;-36
2021/12/01 10:31:05;;;;;;;1.50;0.80;;;16.40;75.70;;;;;;5061335;28;20054;-39
2021/12/01 10:33:31;;;;;;;2.33;0.88;;;16.40;75.60;;;;;;5076319;28;20044;-41
2021/12/01 10:36:01;;;;;;;1.33;0.80;;;16.50;75.50;;;;;;5061254;28;21641;-41
2021/12/01 10:38:33;;;;;;;1.80;0.90;;;16.50;75.40;;;;;;5076977;28;20043;-41
2021/12/01 10:41:02;;;;;;;;;;;16.50;75.60;;;;;;5057276;28;33996;-40
2021/12/01 10:43:37;;;;;;;1.42;1.00;;;16.50;75.20;;;;;;5077534;28;19967;-40
2021/12/01 10:46:10;;;;;;;0.90;0.80;;;16.50;75.10;;;;;;5048089;28;20067;-34
2021/12/01 10:48:36;;;;;;;2.22;0.73;;;16.50;75.80;;;;;;5079407;28;20044;-40
2021/12/01 10:51:02;;;;;;;1.10;0.85;;;16.50;75.70;;;;;;5075516;28;20055;-42
2021/12/01 10:53:29;;;;;;;1.92;0.80;;;16.50;76.30;;;;;;5059148;28;26884;-41
2021/12/01 10:56:01;;;;;;;1.45;0.80;;;16.50;75.80;;;;;;5075268;28;23928;-40
2021/12/01 10:58:35;;;;;;;2.22;0.77;;;16.50;76.10;;;;;;5056229;28;24239;-36
2021/12/01 11:01:03;;;;;;;1.70;0.80;;;16.60;76.10;;;;;;5080591;28;20396;-36
2021/12/01 11:03:31;;;;;;;1.83;0.73;;;16.60;76.00;;;;;;5059253;28;20131;-38
2021/12/01 11:06:07;;;;;;;2.00;1.00;;;16.60;75.90;;;;;;5073109;28;20062;-41
2021/12/01 11:08:40;;;;;;;1.90;0.80;;;16.60;76.00;;;;;;5058431;28;29489;-40
2021/12/01 11:11:07;;;;;;;2.15;0.70;;;16.60;76.00;;;;;;5074966;28;20482;-38
2021/12/01 11:13:33;;;;;;;1.77;0.70;;;16.70;76.20;;;;;;5061530;28;22433;-40
2021/12/01 11:16:02;;;;;;;1.88;0.90;;;16.70;76.10;;;;;;5056113;28;20083;-38
2021/12/01 11:18:30;;;;;;;3.38;1.20;;;16.70;76.00;;;;;;5060383;28;20120;-42
2021/12/01 11:21:01;;;;;;;2.97;0.98;;;16.70;75.70;;;;;;5074797;28;20052;-39
2021/12/01 11:23:31;;;;;;;2.03;1.10;;;16.70;75.60;;;;;;5069595;28;31594;-41
2021/12/01 11:25:58;;;;;;;4.68;1.15;;;16.70;75.60;;;;;;5079341;28;20036;-41
2021/12/01 11:28:27;;;;;;;2.22;0.80;;;16.70;75.60;;;;;;5052823;28;20051;-40
2021/12/01 11:30:56;;;;;;;2.45;0.80;;;16.70;75.50;;;;;;5079538;28;20105;-37
2021/12/01 11:33:22;;;;;;;2.22;0.75;;;16.70;75.70;;;;;;5062087;28;27728;-41
2021/12/01 11:35:52;;;;;;;2.15;0.70;;;16.80;75.70;;;;;;5078005;28;20033;-41
2021/12/01 11:38:19;;;;;;;2.40;0.80;;;16.80;75.40;;;;;;5077808;28;20464;-41
2021/12/01 11:40:45;;;;;;;2.58;0.80;;;16.80;75.70;;;;;;5063154;28;26796;-38
2021/12/01 11:43:12;;;;;;;3.33;0.90;;;16.80;75.60;;;;;;5082832;28;20033;-41
2021/12/01 11:45:41;;;;;;;3.67;1.42;;;16.80;75.70;;;;;;5059745;28;20040;-41
2021/12/01 11:48:13;;;;;;;2.33;0.73;;;16.80;75.80;;;;;;5082420;28;20044;-36
2021/12/01 11:50:49;;;;;;;2.80;0.80;;;16.80;75.70;;;;;;5059998;28;34368;-38
2021/12/01 11:53:22;;;;;;;10.07;1.70;;;16.80;75.20;;;;;;5078501;28;20596;-38
2021/12/01 11:56:02;;;;;;;4.28;1.10;;;16.80;75.30;;;;;;5061523;28;20047;-38
2021/12/01 11:58:40;;;;;;;6.78;1.17;;;16.80;75.50;;;;;;5077725;28;20072;-41
2021/12/01 12:01:26;;;;;;;6.57;1.38;;;16.80;75.20;;;;;;5060425;28;24109;-36
2021/12/01 12:04:01;;;;;;;7.82;1.60;;;16.80;75.80;;;;;;5080016;28;20083;-38
2021/12/01 12:06:28;;;;;;;6.65;1.25;;;16.80;75.50;;;;;;5060577;28;31829;-40
2021/12/01 12:08:54;;;;;;;5.90;1.45;;;16.80;75.40;;;;;;5078330;28;20040;-37
2021/12/01 12:11:40;;;;;;;5.28;1.35;;;16.80;75.30;;;;;;5057823;28;20119;-38
2021/12/01 12:14:20;;;;;;;4.38;1.30;;;16.80;75.80;;;;;;5074011;28;20040;-39
2021/12/01 12:17:12;;;;;;;5.93;1.85;;;16.80;75.30;;;;;;5056718;28;20045;-39
2021/12/01 12:19:48;;;;;;;3.45;1.20;;;16.80;76.30;;;;;;5077112;28;34607;-38
2021/12/01 12:22:18;;;;;;;4.22;1.20;;;16.80;76.30;;;;;;5062935;28;20135;-39
2021/12/01 12:24:53;;;;;;;5.20;1.50;;;16.80;76.70;;;;;;5079627;28;20071;-38
2021/12/01 12:27:41;;;;;;;2.35;1.00;;;16.80;76.10;;;;;;5060690;28;21163;-40
2021/12/01 12:30:14;;;;;;;2.95;1.10;;;16.80;76.80;;;;;;5079015;28;20187;-40
2021/12/01 12:32:42;;;;;;;4.47;1.15;;;16.80;76.30;;;;;;5059992;28;34164;-38
2021/12/01 12:35:16;;;;;;;4.85;1.15;;;16.80;76.70;;;;;;5080468;28;20583;-41
2021/12/01 12:37:43;;;;;;;5.30;1.33;;;16.80;78.10;;;;;;5061921;28;20840;-39
2021/12/01 12:40:31;;;;;;;3.60;1.10;;;16.80;78.50;;;;;;5095707;27;20047;-40
2021/12/01 12:43:25;;;;;;;12.00;2.08;;;16.80;79.20;;;;;;5063340;28;20079;-39
2021/12/01 12:46:06;;;;;;;6.50;1.40;;;16.80;79.00;;;;;;5078702;28;20054;-37
2021/12/01 12:48:36;;;;;;;;;;;16.80;79.80;;;;;;5056969;28;31335;-39
2021/12/01 12:51:17;;;;;;;5.35;1.20;;;16.90;81.70;;;;;;5076833;28;19963;-39
2021/12/01 12:54:09;;;;;;;6.80;1.53;;;16.90;80.00;;;;;;5057640;28;20048;-33
2021/12/01 12:56:37;;;;;;;6.05;1.48;;;16.90;81.90;;;;;;5065453;28;20059;-37
2021/12/01 12:59:33;;;;;;;5.65;1.63;;;16.90;81.10;;;;;;5045028;28;20040;-40
2021/12/01 13:02:09;;;;;;;5.65;1.60;;;17.00;83.30;;;;;;5073387;28;22032;-34